sensor_id;sensor_type;location;lat;lon;timestamp;pressure;altitude;pressure_sealevel;temperature;humidity
13612;BME280;6877;51.436;6.774;2023-04-08T00:00:36;101739.09;;;7.11;100.00
13612;BME280;6877;51.436;6.774;2023-04-08T00:03:03;101738.25;;;7.09;100.00
13612;BME280;6877;51.436;6.774;2023-04-08T00:05:29;101740.81;;;7.06;100.00
13612;BME280;6877;51.436;6.774;2023-04-08T00:07:56;101738.16;;;7.03;100.00
13612;BME280;6877;51.436;6.774;2023-04-08T00:10:22;101742.47;;;7.03;100.00
13612;BME280;6877;51.436;6.774;2023-04-08T00:12:50;101751.16;;;7.02;100.00
13612;BME280;6877;51.436;6.774;2023-04-08T00:15:16;101746.81;;;7.01;100.00
13612;BME280;6877;51.436;6.774;2023-04-08T00:17:48;101745.91;;;6.97;100.00
13612;BME280;6877;51.436;6.774;2023-04-08T00:20:14;101747.59;;;6.95;100.00
13612;BME280;6877;51.436;6.774;2023-04-08T00:22:40;101739.75;;;6.93;100.00
13612;BME280;6877;51.436;6.774;2023-04-08T00:25:12;101744.97;;;6.92;100.00
13612;BME280;6877;51.436;6.774;2023-04-08T00:27:43;101744.97;;;6.90;100.00
13612;BME280;6877;51.436;6.774;2023-04-08T00:30:10;101748.38;;;6.89;100.00
13612;BME280;6877;51.436;6.774;2023-04-08T00:32:37;101754.47;;;6.90;100.00
13612;BME280;6877;51.436;6.774;2023-04-08T00:35:04;101747.56;;;6.90;100.00
13612;BME280;6877;51.436;6.774;2023-04-08T00:37:30;101752.72;;;6.89;100.00
13612;BME280;6877;51.436;6.774;2023-04-08T00:39:57;101759.66;;;6.88;100.00
13612;BME280;6877;51.436;6.774;2023-04-08T00:42:24;101756.16;;;6.86;100.00
13612;BME280;6877;51.436;6.774;2023-04-08T00:44:50;101758.75;;;6.86;100.00
13612;BME280;6877;51.436;6.774;2023-04-08T00:47:16;101760.50;;;6.84;100.00
13612;BME280;6877;51.436;6.774;2023-04-08T00:49:48;101754.38;;;6.82;100.00
13612;BME280;6877;51.436;6.774;2023-04-08T00:52:19;101759.53;;;6.81;100.00
13612;BME280;6877;51.436;6.774;2023-04-08T00:54:51;101763.88;;;6.79;100.00
13612;BME280;6877;51.436;6.774;2023-04-08T00:57:22;101763.84;;;6.76;100.00
13612;BME280;6877;51.436;6.774;2023-04-08T00:59:49;101769.84;;;6.71;100.00
13612;BME280;6877;51.436;6.774;2023-04-08T01:05:26;101773.25;;;6.67;100.00
13612;BME280;6877;51.436;6.774;2023-04-08T01:07:54;101769.72;;;6.64;100.00
13612;BME280;6877;51.436;6.774;2023-04-08T01:10:29;101772.28;;;6.61;100.00
13612;BME280;6877;51.436;6.774;2023-04-08T01:12:58;101774.94;;;6.62;100.00
13612;BME280;6877;51.436;6.774;2023-04-08T01:15:28;101770.56;;;6.61;100.00
13612;BME280;6877;51.436;6.774;2023-04-08T01:17:55;101771.38;;;6.59;100.00
13612;BME280;6877;51.436;6.774;2023-04-08T01:20:24;101773.13;;;6.58;100.00
13612;BME280;6877;51.436;6.774;2023-04-08T01:25:37;101767.00;;;6.53;100.00
13612;BME280;6877;51.436;6.774;2023-04-08T01:28:09;101767.78;;;6.49;100.00
13612;BME280;6877;51.436;6.774;2023-04-08T01:30:42;101774.72;;;6.47;100.00
13612;BME280;6877;51.436;6.774;2023-04-08T01:33:16;101775.53;;;6.44;100.00
13612;BME280;6877;51.436;6.774;2023-04-08T01:35:44;101775.50;;;6.43;100.00
13612;BME280;6877;51.436;6.774;2023-04-08T01:38:14;101779.00;;;6.43;100.00
13612;BME280;6877;51.436;6.774;2023-04-08T01:40:42;101778.09;;;6.43;100.00
13612;BME280;6877;51.436;6.774;2023-04-08T01:43:10;101776.34;;;6.42;100.00
13612;BME280;6877;51.436;6.774;2023-04-08T01:45:38;101771.97;;;6.38;100.00
13612;BME280;6877;51.436;6.774;2023-04-08T01:48:11;101779.72;;;6.35;100.00
13612;BME280;6877;51.436;6.774;2023-04-08T01:50:40;101780.53;;;6.32;100.00
13612;BME280;6877;51.436;6.774;2023-04-08T01:53:12;101779.63;;;6.29;100.00
13612;BME280;6877;51.436;6.774;2023-04-08T01:55:39;101776.13;;;6.26;100.00
13612;BME280;6877;51.436;6.774;2023-04-08T01:58:19;101782.19;;;6.25;100.00
13612;BME280;6877;51.436;6.774;2023-04-08T02:00:52;101774.34;;;6.24;100.00
13612;BME280;6877;51.436;6.774;2023-04-08T02:03:27;101772.63;;;6.24;100.00
13612;BME280;6877;51.436;6.774;2023-04-08T02:05:56;101779.56;;;6.25;100.00
13612;BME280;6877;51.436;6.774;2023-04-08T02:08:22;101783.13;;;6.31;100.00
13612;BME280;6877;51.436;6.774;2023-04-08T02:10:48;101774.44;;;6.29;100.00
13612;BME280;6877;51.436;6.774;2023-04-08T02:13:21;101780.50;;;6.29;100.00
13612;BME280;6877;51.436;6.774;2023-04-08T02:15:51;101776.97;;;6.27;100.00
13612;BME280;6877;51.436;6.774;2023-04-08T02:18:24;101783.84;;;6.22;100.00
13612;BME280;6877;51.436;6.774;2023-04-08T02:21:08;101786.22;;;6.08;100.00
13612;BME280;6877;51.436;6.774;2023-04-08T02:23:38;101794.81;;;6.04;100.00
13612;BME280;6877;51.436;6.774;2023-04-08T02:26:12;101787.63;;;5.91;100.00
13612;BME280;6877;51.436;6.774;2023-04-08T02:28:40;101789.09;;;5.75;100.00
13612;BME280;6877;51.436;6.774;2023-04-08T02:31:16;101794.00;;;5.58;100.00
13612;BME280;6877;51.436;6.774;2023-04-08T02:33:43;101786.88;;;5.49;100.00
13612;BME280;6877;51.436;6.774;2023-04-08T02:36:10;101790.97;;;5.37;100.00
13612;BME280;6877;51.436;6.774;2023-04-08T02:38:37;101798.44;;;5.21;100.00
13612;BME280;6877;51.436;6.774;2023-04-08T02:41:04;101796.47;;;5.09;100.00
13612;BME280;6877;51.436;6.774;2023-04-08T02:43:35;101794.63;;;5.04;100.00
13612;BME280;6877;51.436;6.774;2023-04-08T02:46:01;101787.56;;;4.97;100.00
13612;BME280;6877;51.436;6.774;2023-04-08T02:48:34;101792.56;;;4.87;100.00
13612;BME280;6877;51.436;6.774;2023-04-08T02:51:00;101789.75;;;4.78;100.00
13612;BME280;6877;51.436;6.774;2023-04-08T02:53:32;101789.75;;;4.77;100.00
13612;BME280;6877;51.436;6.774;2023-04-08T02:56:03;101785.28;;;4.71;100.00
13612;BME280;6877;51.436;6.774;2023-04-08T02:58:35;101784.38;;;4.69;100.00
13612;BME280;6877;51.436;6.774;2023-04-08T03:01:01;101786.75;;;4.60;100.00
13612;BME280;6877;51.436;6.774;2023-04-08T03:03:33;101789.13;;;4.49;100.00
13612;BME280;6877;51.436;6.774;2023-04-08T03:05:59;101787.22;;;4.42;100.00
13612;BME280;6877;51.436;6.774;2023-04-08T03:08:26;101787.19;;;4.40;100.00
13612;BME280;6877;51.436;6.774;2023-04-08T03:10:53;101792.22;;;4.34;100.00
13612;BME280;6877;51.436;6.774;2023-04-08T03:13:19;101793.78;;;4.28;100.00
13612;BME280;6877;51.436;6.774;2023-04-08T03:15:46;101790.19;;;4.21;100.00
13612;BME280;6877;51.436;6.774;2023-04-08T03:18:12;101788.44;;;4.20;100.00
13612;BME280;6877;51.436;6.774;2023-04-08T03:20:38;101795.34;;;4.21;100.00
13612;BME280;6877;51.436;6.774;2023-04-08T03:23:10;101793.63;;;4.20;100.00
13612;BME280;6877;51.436;6.774;2023-04-08T03:25:41;101786.50;;;4.13;100.00
13612;BME280;6877;51.436;6.774;2023-04-08T03:28:12;101792.53;;;4.12;100.00
13612;BME280;6877;51.436;6.774;2023-04-08T03:30:39;101789.88;;;4.09;100.00
13612;BME280;6877;51.436;6.774;2023-04-08T03:33:05;101789.84;;;4.07;100.00
13612;BME280;6877;51.436;6.774;2023-04-08T03:35:33;101800.00;;;4.00;100.00
13612;BME280;6877;51.436;6.774;2023-04-08T03:37:59;101795.59;;;3.95;100.00
13612;BME280;6877;51.436;6.774;2023-04-08T03:40:31;101791.50;;;4.04;100.00
13612;BME280;6877;51.436;6.774;2023-04-08T03:42:57;101805.41;;;4.09;100.00
13612;BME280;6877;51.436;6.774;2023-04-08T03:45:23;101805.63;;;4.16;100.00
13612;BME280;6877;51.436;6.774;2023-04-08T03:47:50;101795.97;;;4.11;100.00
13612;BME280;6877;51.436;6.774;2023-04-08T03:50:16;101808.72;;;4.03;100.00
13612;BME280;6877;51.436;6.774;2023-04-08T03:52:42;101809.47;;;3.98;100.00
13612;BME280;6877;51.436;6.774;2023-04-08T03:55:14;101811.06;;;3.92;100.00
13612;BME280;6877;51.436;6.774;2023-04-08T03:57:45;101810.06;;;3.87;100.00
13612;BME280;6877;51.436;6.774;2023-04-08T04:00:12;101812.44;;;3.80;100.00
13612;BME280;6877;51.436;6.774;2023-04-08T04:02:39;101806.09;;;3.68;100.00
13612;BME280;6877;51.436;6.774;2023-04-08T04:05:06;101817.28;;;3.66;100.00
13612;BME280;6877;51.436;6.774;2023-04-08T04:07:33;101814.53;;;3.61;100.00
13612;BME280;6877;51.436;6.774;2023-04-08T04:10:05;101811.78;;;3.55;100.00
13612;BME280;6877;51.436;6.774;2023-04-08T04:12:31;101817.06;;;3.58;100.00
13612;BME280;6877;51.436;6.774;2023-04-08T04:14:58;101816.06;;;3.53;100.00
13612;BME280;6877;51.436;6.774;2023-04-08T04:17:24;101819.47;;;3.52;100.00
13612;BME280;6877;51.436;6.774;2023-04-08T04:19:51;101823.94;;;3.58;100.00
13612;BME280;6877;51.436;6.774;2023-04-08T04:22:18;101822.28;;;3.60;100.00
13612;BME280;6877;51.436;6.774;2023-04-08T04:24:48;101830.94;;;3.62;100.00
13612;BME280;6877;51.436;6.774;2023-04-08T04:27:14;101824.13;;;3.64;100.00
13612;BME280;6877;51.436;6.774;2023-04-08T04:29:47;101834.72;;;3.73;100.00
13612;BME280;6877;51.436;6.774;2023-04-08T04:32:18;101838.59;;;3.89;100.00
13612;BME280;6877;51.436;6.774;2023-04-08T04:34:45;101838.94;;;4.03;100.00
13612;BME280;6877;51.436;6.774;2023-04-08T04:37:11;101840.91;;;4.13;100.00
13612;BME280;6877;51.436;6.774;2023-04-08T04:39:38;101844.19;;;4.39;100.00
13612;BME280;6877;51.436;6.774;2023-04-08T04:42:05;101845.50;;;4.58;100.00
13612;BME280;6877;51.436;6.774;2023-04-08T04:44:32;101843.13;;;4.69;100.00
13612;BME280;6877;51.436;6.774;2023-04-08T04:46:58;101847.66;;;4.77;100.00
13612;BME280;6877;51.436;6.774;2023-04-08T04:49:25;101838.22;;;4.79;100.00
13612;BME280;6877;51.436;6.774;2023-04-08T04:51:51;101845.06;;;4.77;100.00
13612;BME280;6877;51.436;6.774;2023-04-08T04:54:23;101850.41;;;4.83;100.00
13612;BME280;6877;51.436;6.774;2023-04-08T04:56:54;101852.19;;;4.86;100.00
13612;BME280;6877;51.436;6.774;2023-04-08T04:59:25;101849.66;;;4.89;100.00
13612;BME280;6877;51.436;6.774;2023-04-08T05:01:52;101853.19;;;4.93;100.00
13612;BME280;6877;51.436;6.774;2023-04-08T05:04:19;101858.53;;;4.99;100.00
13612;BME280;6877;51.436;6.774;2023-04-08T05:06:45;101862.22;;;5.10;100.00
13612;BME280;6877;51.436;6.774;2023-04-08T05:09:11;101869.19;;;5.11;100.00
13612;BME280;6877;51.436;6.774;2023-04-08T05:11:38;101871.78;;;5.13;100.00
13612;BME280;6877;51.436;6.774;2023-04-08T05:14:09;101873.59;;;5.15;100.00
13612;BME280;6877;51.436;6.774;2023-04-08T05:16:35;101872.66;;;5.13;100.00
13612;BME280;6877;51.436;6.774;2023-04-08T05:19:07;101878.59;;;5.07;100.00
13612;BME280;6877;51.436;6.774;2023-04-08T05:21:33;101877.72;;;5.07;100.00
13612;BME280;6877;51.436;6.774;2023-04-08T05:24:05;101872.47;;;5.04;100.00
13612;BME280;6877;51.436;6.774;2023-04-08T05:26:31;101870.72;;;5.03;100.00
13612;BME280;6877;51.436;6.774;2023-04-08T05:28:58;101877.66;;;5.04;100.00
13612;BME280;6877;51.436;6.774;2023-04-08T05:31:29;101881.22;;;5.09;100.00
13612;BME280;6877;51.436;6.774;2023-04-08T05:33:56;101870.94;;;5.14;100.00
13612;BME280;6877;51.436;6.774;2023-04-08T05:36:22;101883.25;;;5.22;100.00
13612;BME280;6877;51.436;6.774;2023-04-08T05:38:48;101891.16;;;5.28;100.00
13612;BME280;6877;51.436;6.774;2023-04-08T05:41:15;101892.09;;;5.30;100.00
13612;BME280;6877;51.436;6.774;2023-04-08T05:43:41;101898.94;;;5.28;100.00
13612;BME280;6877;51.436;6.774;2023-04-08T05:46:13;101897.22;;;5.27;100.00
13612;BME280;6877;51.436;6.774;2023-04-08T05:48:44;101904.13;;;5.28;100.00
13612;BME280;6877;51.436;6.774;2023-04-08T05:51:16;101906.88;;;5.34;100.00
13612;BME280;6877;51.436;6.774;2023-04-08T05:53:48;101903.59;;;5.43;100.00
13612;BME280;6877;51.436;6.774;2023-04-08T05:56:14;101902.81;;;5.47;100.00
13612;BME280;6877;51.436;6.774;2023-04-08T05:58:45;101906.31;;;5.49;100.00
13612;BME280;6877;51.436;6.774;2023-04-08T06:01:17;101912.38;;;5.50;100.00
13612;BME280;6877;51.436;6.774;2023-04-08T06:03:43;101912.38;;;5.50;100.00
13612;BME280;6877;51.436;6.774;2023-04-08T06:06:10;101910.72;;;5.53;100.00
13612;BME280;6877;51.436;6.774;2023-04-08T06:08:37;101910.78;;;5.56;100.00
13612;BME280;6877;51.436;6.774;2023-04-08T06:11:03;101915.25;;;5.62;100.00
13612;BME280;6877;51.436;6.774;2023-04-08T06:13:44;101923.16;;;5.68;100.00
13612;BME280;6877;51.436;6.774;2023-04-08T06:16:11;101917.16;;;5.71;100.00
13612;BME280;6877;51.436;6.774;2023-04-08T06:18:38;101917.09;;;5.68;100.00
13612;BME280;6877;51.436;6.774;2023-04-08T06:21:04;101913.59;;;5.67;100.00
13612;BME280;6877;51.436;6.774;2023-04-08T06:23:31;101919.69;;;5.68;100.00
13612;BME280;6877;51.436;6.774;2023-04-08T06:25:57;101928.28;;;5.65;100.00
13612;BME280;6877;51.436;6.774;2023-04-08T06:28:23;101928.34;;;5.68;100.00
13612;BME280;6877;51.436;6.774;2023-04-08T06:30:50;101931.09;;;5.76;100.00
13612;BME280;6877;51.436;6.774;2023-04-08T06:33:16;101934.69;;;5.82;100.00
13612;BME280;6877;51.436;6.774;2023-04-08T06:35:43;101939.28;;;5.93;100.00
13612;BME280;6877;51.436;6.774;2023-04-08T06:38:09;101944.63;;;6.02;100.00
13612;BME280;6877;51.436;6.774;2023-04-08T06:40:39;101944.78;;;6.11;100.00
13612;BME280;6877;51.436;6.774;2023-04-08T06:43:05;101943.91;;;6.09;100.00
13612;BME280;6877;51.436;6.774;2023-04-08T06:45:39;101943.03;;;6.09;100.00
13612;BME280;6877;51.436;6.774;2023-04-08T06:48:08;101946.53;;;6.11;100.00
13612;BME280;6877;51.436;6.774;2023-04-08T06:50:34;101944.91;;;6.17;100.00
13612;BME280;6877;51.436;6.774;2023-04-08T06:53:15;101952.81;;;6.22;100.00
13612;BME280;6877;51.436;6.774;2023-04-08T06:55:46;101949.41;;;6.24;100.00
13612;BME280;6877;51.436;6.774;2023-04-08T06:58:13;101956.34;;;6.25;100.00
13612;BME280;6877;51.436;6.774;2023-04-08T07:00:41;101960.69;;;6.26;100.00
13612;BME280;6877;51.436;6.774;2023-04-08T07:03:17;101966.84;;;6.32;100.00
13612;BME280;6877;51.436;6.774;2023-04-08T07:05:58;101972.13;;;6.35;100.00
13612;BME280;6877;51.436;6.774;2023-04-08T07:08:24;101968.66;;;6.36;100.00
13612;BME280;6877;51.436;6.774;2023-04-08T07:10:51;101972.19;;;6.39;100.00
13612;BME280;6877;51.436;6.774;2023-04-08T07:13:23;101969.69;;;6.44;100.00
13612;BME280;6877;51.436;6.774;2023-04-08T07:15:54;101968.13;;;6.54;100.00
13612;BME280;6877;51.436;6.774;2023-04-08T07:18:20;101978.47;;;6.50;100.00
13612;BME280;6877;51.436;6.774;2023-04-08T07:20:53;101980.19;;;6.50;100.00
13612;BME280;6877;51.436;6.774;2023-04-08T07:23:20;101976.84;;;6.57;100.00
13612;BME280;6877;51.436;6.774;2023-04-08T07:25:47;101978.78;;;6.69;100.00
13612;BME280;6877;51.436;6.774;2023-04-08T07:28:14;101980.66;;;6.78;100.00
13612;BME280;6877;51.436;6.774;2023-04-08T07:30:50;101984.16;;;6.80;100.00
13612;BME280;6877;51.436;6.774;2023-04-08T07:33:37;101987.63;;;6.79;100.00
13612;BME280;6877;51.436;6.774;2023-04-08T07:36:11;101995.47;;;6.82;100.00
13612;BME280;6877;51.436;6.774;2023-04-08T07:38:38;101994.69;;;6.86;100.00
13612;BME280;6877;51.436;6.774;2023-04-08T07:41:10;101997.13;;;6.77;100.00
13612;BME280;6877;51.436;6.774;2023-04-08T07:43:41;101997.00;;;6.70;100.00
13612;BME280;6877;51.436;6.774;2023-04-08T07:46:08;101998.81;;;6.74;100.00
13612;BME280;6877;51.436;6.774;2023-04-08T07:48:39;102001.44;;;6.76;100.00
13612;BME280;6877;51.436;6.774;2023-04-08T07:51:20;102008.50;;;6.82;100.00
13612;BME280;6877;51.436;6.774;2023-04-08T07:53:46;102011.88;;;6.78;100.00
13612;BME280;6877;51.436;6.774;2023-04-08T07:56:14;102018.75;;;6.72;100.00
13612;BME280;6877;51.436;6.774;2023-04-08T07:58:46;102017.78;;;6.67;100.00
13612;BME280;6877;51.436;6.774;2023-04-08T08:01:17;102017.81;;;6.70;100.00
13612;BME280;6877;51.436;6.774;2023-04-08T08:03:44;102029.78;;;6.61;100.00
13612;BME280;6877;51.436;6.774;2023-04-08T08:06:12;102029.66;;;6.53;100.00
13612;BME280;6877;51.436;6.774;2023-04-08T08:08:39;102028.31;;;6.28;100.00
13612;BME280;6877;51.436;6.774;2023-04-08T08:11:10;102041.31;;;6.28;100.00
13612;BME280;6877;51.436;6.774;2023-04-08T08:13:44;102033.59;;;6.33;100.00
13612;BME280;6877;51.436;6.774;2023-04-08T08:16:10;102046.69;;;6.37;100.00
13612;BME280;6877;51.436;6.774;2023-04-08T08:18:37;102039.88;;;6.44;100.00
13612;BME280;6877;51.436;6.774;2023-04-08T08:21:05;102043.78;;;6.67;100.00
13612;BME280;6877;51.436;6.774;2023-04-08T08:23:31;102042.16;;;6.74;100.00
13612;BME280;6877;51.436;6.774;2023-04-08T08:25:59;102040.81;;;6.96;100.00
13612;BME280;6877;51.436;6.774;2023-04-08T08:28:26;102037.75;;;7.20;100.00
13612;BME280;6877;51.436;6.774;2023-04-08T08:30:58;102045.22;;;7.56;100.00
13612;BME280;6877;51.436;6.774;2023-04-08T08:33:29;102058.81;;;7.95;100.00
13612;BME280;6877;51.436;6.774;2023-04-08T08:36:01;102057.88;;;7.91;100.00
13612;BME280;6877;51.436;6.774;2023-04-08T08:38:29;102055.78;;;7.65;100.00
13612;BME280;6877;51.436;6.774;2023-04-08T08:41:01;102055.91;;;7.75;100.00
13612;BME280;6877;51.436;6.774;2023-04-08T08:43:29;102054.44;;;7.92;100.00
13612;BME280;6877;51.436;6.774;2023-04-08T08:46:07;102052.16;;;8.17;100.00
13612;BME280;6877;51.436;6.774;2023-04-08T08:48:35;102050.75;;;8.43;100.00
13612;BME280;6877;51.436;6.774;2023-04-08T08:51:10;102053.59;;;8.65;100.00
13612;BME280;6877;51.436;6.774;2023-04-08T08:53:42;102048.44;;;8.71;100.00
13612;BME280;6877;51.436;6.774;2023-04-08T08:56:10;102046.78;;;8.80;100.00
13612;BME280;6877;51.436;6.774;2023-04-08T08:58:37;102048.59;;;8.91;100.00
13612;BME280;6877;51.436;6.774;2023-04-08T09:04:12;102052.22;;;9.07;100.00
13612;BME280;6877;51.436;6.774;2023-04-08T09:06:41;102060.84;;;8.96;100.00
13612;BME280;6877;51.436;6.774;2023-04-08T09:09:12;102057.47;;;9.10;100.00
13612;BME280;6877;51.436;6.774;2023-04-08T09:11:41;102059.09;;;8.95;100.00
13612;BME280;6877;51.436;6.774;2023-04-08T09:14:20;102062.56;;;8.94;100.00
13612;BME280;6877;51.436;6.774;2023-04-08T09:16:47;102067.88;;;9.03;100.00
13612;BME280;6877;51.436;6.774;2023-04-08T09:19:19;102064.53;;;9.23;100.00
13612;BME280;6877;51.436;6.774;2023-04-08T09:22:07;102063.16;;;9.77;100.00
13612;BME280;6877;51.436;6.774;2023-04-08T09:24:34;102066.19;;;11.53;100.00
13612;BME280;6877;51.436;6.774;2023-04-08T09:27:03;102067.34;;;13.00;100.00
13612;BME280;6877;51.436;6.774;2023-04-08T09:29:34;102084.91;;;12.92;99.59
13612;BME280;6877;51.436;6.774;2023-04-08T09:32:07;102080.97;;;12.14;97.77
13612;BME280;6877;51.436;6.774;2023-04-08T09:34:33;102087.19;;;11.67;96.88
13612;BME280;6877;51.436;6.774;2023-04-08T09:37:00;102093.31;;;11.17;97.41
13612;BME280;6877;51.436;6.774;2023-04-08T09:39:31;102086.31;;;11.41;100.00
13612;BME280;6877;51.436;6.774;2023-04-08T09:42:04;102081.00;;;11.99;100.00
13612;BME280;6877;51.436;6.774;2023-04-08T09:44:34;102088.66;;;12.56;96.37
13612;BME280;6877;51.436;6.774;2023-04-08T09:47:13;102091.16;;;12.72;100.00
13612;BME280;6877;51.436;6.774;2023-04-08T09:49:55;102080.63;;;12.75;94.72
13612;BME280;6877;51.436;6.774;2023-04-08T09:52:44;102095.34;;;14.01;96.48
13612;BME280;6877;51.436;6.774;2023-04-08T09:55:20;102100.91;;;15.10;94.12
13612;BME280;6877;51.436;6.774;2023-04-08T09:58:03;102095.91;;;14.94;85.47
13612;BME280;6877;51.436;6.774;2023-04-08T10:00:38;102084.03;;;15.74;82.54
13612;BME280;6877;51.436;6.774;2023-04-08T10:03:29;102081.06;;;15.91;82.15
13612;BME280;6877;51.436;6.774;2023-04-08T10:06:00;102079.50;;;16.64;85.87
13612;BME280;6877;51.436;6.774;2023-04-08T10:08:27;102077.53;;;17.11;86.86
13612;BME280;6877;51.436;6.774;2023-04-08T10:10:54;102072.44;;;17.04;72.06
13612;BME280;6877;51.436;6.774;2023-04-08T10:13:26;102073.91;;;16.39;71.63
13612;BME280;6877;51.436;6.774;2023-04-08T10:18:42;102084.69;;;14.13;66.04
13612;BME280;6877;51.436;6.774;2023-04-08T10:24:10;102082.34;;;14.58;79.19
13612;BME280;6877;51.436;6.774;2023-04-08T10:26:45;102089.75;;;14.95;73.07
13612;BME280;6877;51.436;6.774;2023-04-08T10:31:46;102088.44;;;13.91;66.79
13612;BME280;6877;51.436;6.774;2023-04-08T10:34:23;102087.84;;;13.63;71.27
13612;BME280;6877;51.436;6.774;2023-04-08T10:36:56;102084.72;;;13.21;72.05
13612;BME280;6877;51.436;6.774;2023-04-08T10:39:24;102091.22;;;12.68;68.62
13612;BME280;6877;51.436;6.774;2023-04-08T10:41:52;102092.31;;;12.10;66.74
13612;BME280;6877;51.436;6.774;2023-04-08T10:44:25;102084.47;;;12.12;67.11
13612;BME280;6877;51.436;6.774;2023-04-08T10:46:53;102076.63;;;11.84;70.55
13612;BME280;6877;51.436;6.774;2023-04-08T10:49:31;102081.00;;;11.83;70.05
13612;BME280;6877;51.436;6.774;2023-04-08T10:51:58;102070.56;;;11.70;72.83
13612;BME280;6877;51.436;6.774;2023-04-08T10:54:30;102072.28;;;11.72;72.93
13612;BME280;6877;51.436;6.774;2023-04-08T10:57:03;102069.66;;;11.78;75.88
13612;BME280;6877;51.436;6.774;2023-04-08T10:59:34;102075.81;;;11.44;71.84
13612;BME280;6877;51.436;6.774;2023-04-08T11:02:12;102071.47;;;11.07;72.39
13612;BME280;6877;51.436;6.774;2023-04-08T11:04:41;102081.91;;;10.66;75.18
13612;BME280;6877;51.436;6.774;2023-04-08T11:07:13;102074.91;;;10.68;77.67
13612;BME280;6877;51.436;6.774;2023-04-08T11:09:40;102073.94;;;10.32;76.41
13612;BME280;6877;51.436;6.774;2023-04-08T11:12:07;102071.19;;;10.09;76.31
13612;BME280;6877;51.436;6.774;2023-04-08T11:14:39;102070.25;;;9.93;76.70
13612;BME280;6877;51.436;6.774;2023-04-08T11:17:06;102071.03;;;9.79;78.25
13612;BME280;6877;51.436;6.774;2023-04-08T11:19:34;102070.03;;;9.60;78.26
13612;BME280;6877;51.436;6.774;2023-04-08T11:22:01;102069.13;;;9.55;77.95
13612;BME280;6877;51.436;6.774;2023-04-08T11:24:27;102067.44;;;9.61;80.76
13612;BME280;6877;51.436;6.774;2023-04-08T11:26:54;102066.66;;;9.74;78.39
13612;BME280;6877;51.436;6.774;2023-04-08T11:29:26;102067.63;;;9.93;77.70
13612;BME280;6877;51.436;6.774;2023-04-08T11:31:58;102072.13;;;10.19;78.23
13612;BME280;6877;51.436;6.774;2023-04-08T11:34:25;102065.19;;;10.30;76.60
13612;BME280;6877;51.436;6.774;2023-04-08T11:36:51;102064.44;;;10.60;77.08
13612;BME280;6877;51.436;6.774;2023-04-08T11:39:23;102060.97;;;11.03;76.69
13612;BME280;6877;51.436;6.774;2023-04-08T11:41:49;102066.25;;;11.17;74.32
13612;BME280;6877;51.436;6.774;2023-04-08T11:44:16;102064.47;;;11.25;77.97
13612;BME280;6877;51.436;6.774;2023-04-08T11:46:51;102067.13;;;11.20;73.28
13612;BME280;6877;51.436;6.774;2023-04-08T11:49:25;102064.47;;;10.93;73.60
13612;BME280;6877;51.436;6.774;2023-04-08T11:51:58;102080.19;;;10.83;74.59
13612;BME280;6877;51.436;6.774;2023-04-08T11:54:29;102075.81;;;10.79;75.13
13612;BME280;6877;51.436;6.774;2023-04-08T11:57:00;102074.03;;;10.57;74.88
13612;BME280;6877;51.436;6.774;2023-04-08T11:59:33;102081.03;;;10.76;76.35
13612;BME280;6877;51.436;6.774;2023-04-08T12:02:04;102085.44;;;10.93;76.53
13612;BME280;6877;51.436;6.774;2023-04-08T12:04:31;102085.44;;;10.94;74.75
13612;BME280;6877;51.436;6.774;2023-04-08T12:07:02;102081.09;;;11.19;74.90
13612;BME280;6877;51.436;6.774;2023-04-08T12:09:34;102083.69;;;11.56;74.08
13612;BME280;6877;51.436;6.774;2023-04-08T12:12:00;102079.31;;;11.86;76.27
13612;BME280;6877;51.436;6.774;2023-04-08T12:14:27;102076.47;;;12.38;83.08
13612;BME280;6877;51.436;6.774;2023-04-08T12:16:53;102086.00;;;12.57;76.21
13612;BME280;6877;51.436;6.774;2023-04-08T12:19:20;102083.16;;;12.94;78.57
13612;BME280;6877;51.436;6.774;2023-04-08T12:21:51;102086.41;;;13.27;76.20
13612;BME280;6877;51.436;6.774;2023-04-08T12:24:22;102083.59;;;13.51;72.27
13612;BME280;6877;51.436;6.774;2023-04-08T12:26:54;102087.25;;;13.35;68.23
13612;BME280;6877;51.436;6.774;2023-04-08T12:29:21;102091.38;;;13.62;70.78
13612;BME280;6877;51.436;6.774;2023-04-08T12:31:48;102082.16;;;13.10;65.26
13612;BME280;6877;51.436;6.774;2023-04-08T12:34:14;102083.94;;;13.04;69.06
13612;BME280;6877;51.436;6.774;2023-04-08T12:36:46;102079.59;;;12.99;70.53
13612;BME280;6877;51.436;6.774;2023-04-08T12:39:19;102085.72;;;13.03;67.41
13612;BME280;6877;51.436;6.774;2023-04-08T12:41:46;102080.59;;;12.82;67.60
13612;BME280;6877;51.436;6.774;2023-04-08T12:44:17;102074.84;;;12.06;67.71
13612;BME280;6877;51.436;6.774;2023-04-08T12:46:44;102084.31;;;12.47;69.30
13612;BME280;6877;51.436;6.774;2023-04-08T12:49:16;102079.84;;;12.64;71.37
13612;BME280;6877;51.436;6.774;2023-04-08T12:51:42;102077.06;;;12.83;67.55
13612;BME280;6877;51.436;6.774;2023-04-08T12:54:14;102073.84;;;12.41;67.01
13612;BME280;6877;51.436;6.774;2023-04-08T12:56:45;102076.63;;;11.84;69.58
13612;BME280;6877;51.436;6.774;2023-04-08T12:59:11;102072.28;;;11.72;72.40
13612;BME280;6877;51.436;6.774;2023-04-08T13:01:38;102070.47;;;12.03;75.74
13612;BME280;6877;51.436;6.774;2023-04-08T13:04:09;102069.66;;;11.94;70.86
13612;BME280;6877;51.436;6.774;2023-04-08T13:06:36;102077.53;;;11.85;71.20
13612;BME280;6877;51.436;6.774;2023-04-08T13:09:07;102066.22;;;11.61;71.86
13612;BME280;6877;51.436;6.774;2023-04-08T13:11:33;102073.19;;;11.73;73.30
13612;BME280;6877;51.436;6.774;2023-04-08T13:14:00;102068.81;;;11.63;72.67
13612;BME280;6877;51.436;6.774;2023-04-08T13:16:26;102060.09;;;11.56;72.38
13612;BME280;6877;51.436;6.774;2023-04-08T13:18:57;102074.09;;;11.40;72.00
13612;BME280;6877;51.436;6.774;2023-04-08T13:21:29;102076.72;;;11.26;73.47
13612;BME280;6877;51.436;6.774;2023-04-08T13:24:01;102075.81;;;11.44;73.40
13612;BME280;6877;51.436;6.774;2023-04-08T13:26:27;102063.59;;;11.52;71.49
13612;BME280;6877;51.436;6.774;2023-04-08T13:28:59;102068.78;;;11.75;72.22